createdAt,value
2023-02-20T00:00:18.615Z,100107.72
2023-02-20T00:01:53.361Z,100112.16
2023-02-20T00:03:25.403Z,100114.00
2023-02-20T00:04:57.471Z,100113.03
2023-02-20T00:06:29.575Z,100122.75
2023-02-20T00:08:01.914Z,100127.97
2023-02-20T00:09:37.007Z,100117.50
2023-02-20T00:11:09.260Z,100129.59
2023-02-20T00:12:41.405Z,100128.78
2023-02-20T00:14:13.972Z,100129.59
2023-02-20T00:15:46.240Z,100132.31
2023-02-20T00:17:18.292Z,100141.00
2023-02-20T00:18:50.366Z,100142.69
2023-02-20T00:20:25.304Z,100143.41
2023-02-20T00:21:57.328Z,100144.34
2023-02-20T00:23:33.122Z,100143.50
2023-02-20T00:25:05.309Z,100138.38
2023-02-20T00:26:37.431Z,100146.25
2023-02-20T00:28:09.505Z,100147.19
2023-02-20T00:29:41.483Z,100137.88
2023-02-20T00:31:16.206Z,100142.19
2023-02-20T00:32:49.425Z,100143.19
2023-02-20T00:34:23.494Z,100140.66
2023-02-20T00:35:55.460Z,100145.03
2023-02-20T00:37:27.513Z,100140.81
2023-02-20T00:38:59.553Z,100140.81
2023-02-20T00:40:31.668Z,100146.00
2023-02-20T00:42:03.815Z,100135.72
2023-02-20T00:43:37.334Z,100137.50
2023-02-20T00:45:09.794Z,100131.56
2023-02-20T00:46:41.910Z,100132.53
2023-02-20T00:48:14.060Z,100132.75
2023-02-20T00:49:46.195Z,100137.41
2023-02-20T00:51:18.439Z,100145.56
2023-02-20T00:52:50.611Z,100144.84
2023-02-20T00:54:22.960Z,100135.34
2023-02-20T00:55:54.915Z,100140.53
2023-02-20T00:59:06.570Z,100125.03
2023-02-20T01:00:38.672Z,100137.16
2023-02-20T01:02:10.829Z,100137.19
2023-02-20T01:03:43.797Z,100141.63
2023-02-20T01:05:16.143Z,100137.38
2023-02-20T01:06:48.303Z,100140.00
2023-02-20T01:08:20.453Z,100139.28
2023-02-20T01:09:52.530Z,100146.50
2023-02-20T01:11:26.915Z,100136.34
2023-02-20T01:12:59.002Z,100143.38
2023-02-20T01:14:31.234Z,100146.97
2023-02-20T01:16:03.430Z,100146.06
2023-02-20T01:17:35.736Z,100145.13
2023-02-20T01:19:07.748Z,100148.47
2023-02-20T01:20:39.722Z,100144.94
2023-02-20T01:22:12.041Z,100150.06
2023-02-20T01:23:44.121Z,100152.50
2023-02-20T01:25:16.335Z,100154.84
2023-02-20T01:26:49.694Z,100148.59
2023-02-20T01:28:21.575Z,100153.59
2023-02-20T01:29:53.592Z,100148.41
2023-02-20T01:31:27.916Z,100150.88
2023-02-20T01:33:00.118Z,100143.94
2023-02-20T01:34:32.196Z,100147.25
2023-02-20T01:36:04.671Z,100155.78
2023-02-20T01:37:36.757Z,100144.50
2023-02-20T01:39:08.777Z,100152.22
2023-02-20T01:40:48.212Z,100149.53
2023-02-20T01:42:22.863Z,100143.47
2023-02-20T01:43:54.923Z,100146.88
2023-02-20T01:45:26.909Z,100155.50
2023-02-20T01:47:00.446Z,100151.03
2023-02-20T01:48:32.523Z,100157.16
2023-02-20T01:50:07.422Z,100154.56
2023-02-20T01:51:43.699Z,100166.63
2023-02-20T01:53:19.467Z,100157.03
2023-02-20T01:55:30.101Z,100161.34
2023-02-20T01:58:41.645Z,100174.50
2023-02-20T02:00:17.205Z,100170.16
2023-02-20T02:01:49.465Z,100172.88
2023-02-20T02:03:23.968Z,100171.13
2023-02-20T02:04:56.038Z,100172.94
2023-02-20T02:06:29.642Z,100177.97
2023-02-20T02:08:04.252Z,100176.25
2023-02-20T02:09:51.441Z,100169.31
2023-02-20T02:11:24.647Z,100174.69
2023-02-20T02:12:56.801Z,100173.91
2023-02-20T02:14:28.922Z,100178.19
2023-02-20T02:16:22.340Z,100181.56
2023-02-20T02:18:36.346Z,100185.91
2023-02-20T02:20:33.182Z,100176.41
2023-02-20T02:22:43.329Z,100180.84
2023-02-20T02:24:32.925Z,100182.66
2023-02-20T02:26:22.085Z,100189.59
2023-02-20T02:28:33.255Z,100194.69
2023-02-20T02:30:47.592Z,100185.22
2023-02-20T02:32:56.517Z,100182.66
2023-02-20T02:35:02.072Z,100187.00
2023-02-20T02:36:56.103Z,100187.81
2023-02-20T02:38:48.191Z,100193.84
2023-02-20T02:40:43.436Z,100188.56
2023-02-20T02:42:50.912Z,100197.28
2023-02-20T02:44:37.653Z,100192.22
2023-02-20T02:46:18.849Z,100212.94
2023-02-20T02:48:12.155Z,100210.31
2023-02-20T02:50:00.166Z,100199.84
2023-02-20T02:51:37.671Z,100198.19
2023-02-20T02:53:10.489Z,100199.88
2023-02-20T02:54:42.505Z,100202.53
2023-02-20T02:56:23.805Z,100200.78
2023-02-20T02:57:56.762Z,100195.72
2023-02-20T02:59:32.834Z,100200.84
2023-02-20T03:01:05.178Z,100195.72
2023-02-20T03:02:53.442Z,100187.91
2023-02-20T03:04:28.301Z,100198.19
2023-02-20T03:06:34.828Z,100193.81
2023-02-20T03:08:31.650Z,100192.22
2023-02-20T03:10:09.418Z,100196.63
2023-02-20T03:11:41.988Z,100203.63
2023-02-20T03:13:14.631Z,100211.31
2023-02-20T03:15:38.315Z,100213.97
2023-02-20T03:17:26.850Z,100207.22
2023-02-20T03:19:02.257Z,100207.31
2023-02-20T03:20:34.363Z,100210.84
2023-02-20T03:22:14.540Z,100209.09
2023-02-20T03:23:52.856Z,100202.94
2023-02-20T03:25:50.018Z,100206.31
2023-02-20T03:27:42.990Z,100206.31
2023-02-20T03:29:19.117Z,100208.13
2023-02-20T03:31:09.604Z,100202.13
2023-02-20T03:33:01.936Z,100206.41
2023-02-20T03:34:52.486Z,100204.81
2023-02-20T03:36:52.010Z,100205.59
2023-02-20T03:38:43.590Z,100197.16
2023-02-20T03:40:35.028Z,100207.47
2023-02-20T03:42:27.559Z,100200.56
2023-02-20T03:44:02.118Z,100216.16
2023-02-20T03:45:37.138Z,100212.69
2023-02-20T03:47:10.406Z,100214.34
2023-02-20T03:48:56.624Z,100199.63
2023-02-20T03:50:28.738Z,100204.88
2023-02-20T03:52:00.821Z,100189.38
2023-02-20T03:53:36.552Z,100187.69
2023-02-20T03:55:09.762Z,100194.53
2023-02-20T03:56:45.131Z,100195.31
2023-02-20T03:58:19.880Z,100192.81
2023-02-20T03:59:58.533Z,100199.66
2023-02-20T04:01:32.779Z,100209.19
2023-02-20T04:03:11.563Z,100204.13
2023-02-20T04:04:50.814Z,100209.41
2023-02-20T04:06:24.171Z,100209.00
2023-02-20T04:08:04.230Z,100220.38
2023-02-20T04:09:39.574Z,100226.59
2023-02-20T04:11:43.160Z,100222.34
2023-02-20T04:13:15.992Z,100232.84
2023-02-20T04:14:49.684Z,100232.09
2023-02-20T04:16:25.404Z,100226.09
2023-02-20T04:18:05.851Z,100223.50
2023-02-20T04:19:37.799Z,100219.31
2023-02-20T04:21:22.305Z,100221.97
2023-02-20T04:22:57.380Z,100221.19
2023-02-20T04:24:35.037Z,100231.75
2023-02-20T04:26:14.276Z,100241.31
2023-02-20T04:27:46.401Z,100249.19
2023-02-20T04:29:18.492Z,100245.03
2023-02-20T04:30:51.811Z,100254.63
2023-02-20T04:32:23.851Z,100265.97
2023-02-20T04:33:55.845Z,100266.88
2023-02-20T04:35:27.884Z,100254.91
2023-02-20T04:37:20.244Z,100264.44
2023-02-20T04:38:52.680Z,100260.16
2023-02-20T04:40:25.345Z,100261.03
2023-02-20T04:41:57.462Z,100275.75
2023-02-20T04:43:29.492Z,100269.75
2023-02-20T04:45:01.482Z,100273.19
2023-02-20T04:46:33.497Z,100271.47
2023-02-20T04:48:05.856Z,100281.81
2023-02-20T04:49:37.826Z,100278.41
2023-02-20T04:51:12.537Z,100291.38
2023-02-20T04:52:44.523Z,100293.09
2023-02-20T04:54:19.576Z,100284.56
2023-02-20T04:55:51.684Z,100297.53
2023-02-20T04:57:23.730Z,100319.91
2023-02-20T04:58:55.819Z,100313.88
2023-02-20T05:00:28.214Z,100323.34
2023-02-20T05:02:02.334Z,100309.59
2023-02-20T05:03:34.605Z,100317.31
2023-02-20T05:05:07.967Z,100325.91
2023-02-20T05:06:50.162Z,100327.66
2023-02-20T05:08:22.240Z,100330.25
2023-02-20T05:09:54.295Z,100325.91
2023-02-20T05:11:26.463Z,100333.66
2023-02-20T05:12:58.934Z,100346.53
2023-02-20T05:14:31.027Z,100342.25
2023-02-20T05:16:03.974Z,100345.69
2023-02-20T05:17:36.439Z,100346.56
2023-02-20T05:19:08.837Z,100353.44
2023-02-20T05:20:59.652Z,100358.56
2023-02-20T05:22:32.003Z,100360.25
2023-02-20T05:24:06.903Z,100363.66
2023-02-20T05:25:39.964Z,100367.94
2023-02-20T05:27:15.208Z,100357.59
2023-02-20T05:28:47.369Z,100364.44
2023-02-20T05:30:19.459Z,100369.56
2023-02-20T05:31:53.853Z,100368.69
2023-02-20T05:33:26.056Z,100371.25
2023-02-20T05:34:58.477Z,100368.66
2023-02-20T05:36:30.628Z,100367.78
2023-02-20T05:38:02.766Z,100366.94
2023-02-20T05:39:34.816Z,100373.84
2023-02-20T05:41:06.762Z,100383.31
2023-02-20T05:42:38.850Z,100383.31
2023-02-20T05:44:10.966Z,100390.25
2023-02-20T05:45:43.055Z,100396.28
2023-02-20T05:47:15.057Z,100399.78
2023-02-20T05:48:50.839Z,100389.41
2023-02-20T05:50:22.859Z,100404.03
2023-02-20T05:51:57.311Z,100400.59
2023-02-20T05:53:30.600Z,100400.56
2023-02-20T05:55:02.676Z,100397.97
2023-02-20T05:56:34.737Z,100399.66
2023-02-20T05:58:06.807Z,100406.53
2023-02-20T05:59:39.156Z,100403.91
2023-02-20T06:01:18.524Z,100406.41
2023-02-20T06:02:50.601Z,100411.56
2023-02-20T06:05:59.349Z,100409.81
2023-02-20T06:07:31.557Z,100411.47
2023-02-20T06:09:05.266Z,100414.88
2023-02-20T06:10:37.500Z,100414.84
2023-02-20T06:12:09.654Z,100415.66
2023-02-20T06:13:45.514Z,100421.63
2023-02-20T06:15:17.808Z,100420.72
2023-02-20T06:16:49.893Z,100412.13
2023-02-20T06:18:22.089Z,100412.97
2023-02-20T06:19:54.188Z,100417.22
2023-02-20T06:21:27.202Z,100421.53
2023-02-20T06:22:59.384Z,100429.25
2023-02-20T06:24:31.579Z,100424.06
2023-02-20T06:26:03.644Z,100422.34
2023-02-20T06:27:35.804Z,100430.06
2023-02-20T06:29:08.111Z,100432.63
2023-02-20T06:30:40.277Z,100439.47
2023-02-20T06:32:12.528Z,100435.13
2023-02-20T06:33:44.658Z,100434.25
2023-02-20T06:35:16.744Z,100437.69
2023-02-20T06:36:48.828Z,100430.75
2023-02-20T06:38:20.950Z,100424.69
2023-02-20T06:41:31.925Z,100439.25
2023-02-20T06:43:04.153Z,100439.19
2023-02-20T06:44:36.281Z,100424.50
2023-02-20T06:46:08.336Z,100431.38
2023-02-20T06:47:40.409Z,100427.03
2023-02-20T06:49:12.640Z,100429.59
2023-02-20T06:50:44.914Z,100434.72
2023-02-20T06:52:17.166Z,100427.84
2023-02-20T06:53:50.303Z,100435.56
2023-02-20T06:55:22.372Z,100425.13
2023-02-20T06:56:54.647Z,100434.59
2023-02-20T06:58:26.688Z,100430.19
2023-02-20T06:59:58.837Z,100436.13
2023-02-20T07:01:37.418Z,100425.69
2023-02-20T07:03:09.464Z,100433.41
2023-02-20T07:04:41.623Z,100422.22
2023-02-20T07:06:13.914Z,100431.66
2023-02-20T07:07:46.188Z,100435.09
2023-02-20T07:09:20.503Z,100421.19
2023-02-20T07:10:55.518Z,100438.47
2023-02-20T07:12:32.226Z,100428.06
2023-02-20T07:14:04.288Z,100438.47
2023-02-20T07:15:36.419Z,100442.78
2023-02-20T07:17:08.472Z,100441.06
2023-02-20T07:18:40.553Z,100449.66
2023-02-20T07:20:12.850Z,100453.03
2023-02-20T07:21:47.393Z,100452.13
2023-02-20T07:23:19.507Z,100451.19
2023-02-20T07:24:55.217Z,100453.69
2023-02-20T07:26:29.766Z,100451.91
2023-02-20T07:28:01.840Z,100451.91
2023-02-20T07:29:33.939Z,100450.13
2023-02-20T07:31:06.067Z,100453.53
2023-02-20T07:32:38.143Z,100459.59
2023-02-20T07:34:10.316Z,100447.53
2023-02-20T07:35:42.658Z,100444.03
2023-02-20T07:37:15.600Z,100456.97
2023-02-20T07:39:01.561Z,100443.16
2023-02-20T07:40:33.924Z,100469.06
2023-02-20T07:42:06.242Z,100463.06
2023-02-20T07:43:38.316Z,100463.03
2023-02-20T07:45:11.540Z,100467.34
2023-02-20T07:46:43.826Z,100468.22
2023-02-20T07:48:16.043Z,100469.91
2023-02-20T07:49:48.083Z,100474.25
2023-02-20T07:51:20.408Z,100483.69
2023-02-20T07:52:52.611Z,100475.00
2023-02-20T07:54:24.650Z,100474.09
2023-02-20T07:55:56.689Z,100472.31
2023-02-20T07:57:29.371Z,100475.66
2023-02-20T07:59:01.596Z,100473.91
2023-02-20T08:00:33.724Z,100467.78
2023-02-20T08:02:05.964Z,100476.41
2023-02-20T08:03:37.975Z,100472.97
2023-02-20T08:05:10.903Z,100492.00
2023-02-20T08:06:43.128Z,100493.72
2023-02-20T08:08:15.235Z,100489.31
2023-02-20T08:09:47.907Z,100486.63
2023-02-20T08:11:20.954Z,100491.63
2023-02-20T08:12:54.758Z,100490.66
2023-02-20T08:14:28.745Z,100496.75
2023-02-20T08:16:00.862Z,100494.97
2023-02-20T08:17:45.588Z,100496.75
2023-02-20T08:19:18.910Z,100490.66
2023-02-20T08:20:52.397Z,100507.94
2023-02-20T08:22:36.476Z,100508.72
2023-02-20T08:24:13.140Z,100518.22
2023-02-20T08:25:45.418Z,100511.31
2023-02-20T08:27:17.441Z,100526.09
2023-02-20T08:28:50.437Z,100517.38
2023-02-20T08:30:26.314Z,100523.38
2023-02-20T08:31:58.632Z,100520.78
2023-02-20T08:33:30.756Z,100514.56
2023-02-20T08:35:02.873Z,100524.09
2023-02-20T08:36:34.976Z,100516.25
2023-02-20T08:38:22.520Z,100528.22
2023-02-20T08:41:26.703Z,100518.66
2023-02-20T08:42:58.857Z,100520.38
2023-02-20T08:44:30.926Z,100516.97
2023-02-20T08:46:03.619Z,100516.06
2023-02-20T08:47:35.890Z,100509.06
2023-02-20T08:49:08.197Z,100513.34
2023-02-20T08:50:40.474Z,100519.38
2023-02-20T08:52:12.606Z,100513.16
2023-02-20T08:53:44.630Z,100520.09
2023-02-20T08:55:16.794Z,100510.75
2023-02-20T08:56:48.834Z,100519.28
2023-02-20T08:58:23.258Z,100511.47
2023-02-20T08:59:55.619Z,100527.09
2023-02-20T09:01:27.673Z,100519.38
2023-02-20T09:03:00.568Z,100522.88
2023-02-20T09:04:33.037Z,100511.50
2023-02-20T09:06:06.171Z,100516.78
2023-02-20T09:07:38.263Z,100510.75
2023-02-20T09:09:10.753Z,100513.25
2023-02-20T09:10:42.911Z,100518.56
2023-02-20T09:12:15.253Z,100525.50
2023-02-20T09:15:19.126Z,100526.47
2023-02-20T09:16:52.965Z,100537.53
2023-02-20T09:18:25.126Z,100539.25
2023-02-20T09:19:57.334Z,100540.25
2023-02-20T09:21:29.668Z,100534.97
2023-02-20T09:23:01.668Z,100542.59
2023-02-20T09:24:34.676Z,100542.63
2023-02-20T09:26:06.903Z,100533.84
2023-02-20T09:27:38.886Z,100547.66
2023-02-20T09:29:10.958Z,100544.31
2023-02-20T09:30:43.086Z,100549.44
2023-02-20T09:32:15.354Z,100545.00
2023-02-20T09:33:51.215Z,100545.00
2023-02-20T09:35:26.697Z,100564.75
2023-02-20T09:36:58.719Z,100542.28
2023-02-20T09:38:31.137Z,100546.44
2023-02-20T09:40:04.027Z,100524.09
2023-02-20T09:41:46.141Z,100530.28
2023-02-20T09:43:30.445Z,100535.50
2023-02-20T09:45:10.573Z,100549.03
2023-02-20T09:46:46.140Z,100560.28
2023-02-20T09:48:54.277Z,100553.38
2023-02-20T09:50:40.816Z,100547.34
2023-02-20T09:52:14.041Z,100539.47
2023-02-20T09:53:51.644Z,100544.63
2023-02-20T09:55:24.334Z,100538.81
2023-02-20T09:57:02.617Z,100559.44
2023-02-20T09:58:37.450Z,100575.94
2023-02-20T10:00:14.853Z,100553.41
2023-02-20T10:01:55.516Z,100549.00
2023-02-20T10:03:36.385Z,100536.81
2023-02-20T10:05:17.765Z,100538.31
2023-02-20T10:06:52.654Z,100545.97
2023-02-20T10:08:25.975Z,100544.66
2023-02-20T10:09:59.562Z,100538.53
2023-02-20T10:11:46.216Z,100539.19
2023-02-20T10:13:39.435Z,100536.47
2023-02-20T10:15:14.553Z,100539.91
2023-02-20T10:16:56.537Z,100529.53
2023-02-20T10:18:40.384Z,100528.53
2023-02-20T10:20:24.712Z,100515.31
2023-02-20T10:22:01.079Z,100515.19
2023-02-20T10:23:56.771Z,100518.63
2023-02-20T10:25:40.257Z,100512.66
2023-02-20T10:27:27.364Z,100511.75
2023-02-20T10:29:25.796Z,100516.91
2023-02-20T10:30:59.007Z,100519.59
2023-02-20T10:32:41.745Z,100519.72
2023-02-20T10:34:19.418Z,100513.31
2023-02-20T10:35:58.603Z,100542.91
2023-02-20T10:37:47.052Z,100513.31
2023-02-20T10:39:22.552Z,100515.00
2023-02-20T10:41:04.865Z,100505.44
2023-02-20T10:42:43.014Z,100502.13
2023-02-20T10:44:20.817Z,100506.38
2023-02-20T10:46:47.896Z,100519.28
2023-02-20T10:48:20.962Z,100510.63
2023-02-20T10:50:14.652Z,100522.81
2023-02-20T10:51:49.750Z,100515.84
2023-02-20T10:53:28.950Z,100503.59
2023-02-20T10:55:19.051Z,100519.22
2023-02-20T10:56:58.942Z,100533.19
2023-02-20T10:58:36.046Z,100525.41
2023-02-20T11:00:14.364Z,100510.66
2023-02-20T11:01:49.842Z,100528.69
2023-02-20T11:03:48.319Z,100522.72
2023-02-20T11:05:23.182Z,100524.44
2023-02-20T11:07:01.381Z,100515.72
2023-02-20T11:08:34.516Z,100516.78
2023-02-20T11:10:07.190Z,100510.59
2023-02-20T11:11:46.796Z,100508.72
2023-02-20T11:13:21.874Z,100512.13
2023-02-20T11:14:57.076Z,100517.25
2023-02-20T11:16:49.904Z,100528.59
2023-02-20T11:18:28.601Z,100527.75
2023-02-20T11:20:01.792Z,100531.16
2023-02-20T11:23:36.965Z,100501.97
2023-02-20T11:25:26.940Z,100522.63
2023-02-20T11:27:23.768Z,100515.47
2023-02-20T11:29:03.038Z,100507.63
2023-02-20T11:30:37.191Z,100512.84
2023-02-20T11:32:37.037Z,100518.44
2023-02-20T11:34:23.886Z,100521.97
2023-02-20T11:35:57.658Z,100510.81
2023-02-20T11:37:30.315Z,100502.19
2023-02-20T11:39:04.328Z,100510.16
2023-02-20T11:40:36.431Z,100508.94
2023-02-20T11:42:19.284Z,100502.66
2023-02-20T11:44:13.504Z,100500.78
2023-02-20T11:45:45.528Z,100503.50
2023-02-20T11:47:24.974Z,100498.91
2023-02-20T11:49:10.322Z,100493.91
2023-02-20T11:50:45.427Z,100489.91
2023-02-20T11:52:22.955Z,100505.41
2023-02-20T11:54:21.568Z,100499.00
2023-02-20T11:56:10.803Z,100497.81
2023-02-20T11:57:44.324Z,100499.56
2023-02-20T11:59:46.439Z,100489.22
2023-02-20T12:01:35.028Z,100494.13
2023-02-20T12:03:09.842Z,100520.56
2023-02-20T12:05:03.584Z,100497.88
2023-02-20T12:06:39.162Z,100506.44
2023-02-20T12:08:39.144Z,100510.50
2023-02-20T12:10:26.300Z,100500.00
2023-02-20T12:11:58.537Z,100498.16
2023-02-20T12:13:31.856Z,100502.56
2023-02-20T12:15:04.351Z,100493.94
2023-02-20T12:16:48.393Z,100498.47
2023-02-20T12:18:23.463Z,100485.00
2023-02-20T12:20:00.484Z,100494.50
2023-02-20T12:21:49.306Z,100494.16
2023-02-20T12:23:38.148Z,100492.38
2023-02-20T12:25:19.096Z,100481.63
2023-02-20T12:26:56.645Z,100485.06
2023-02-20T12:28:43.251Z,100485.97
2023-02-20T12:30:18.306Z,100491.97
2023-02-20T12:32:05.615Z,100484.25
2023-02-20T12:33:51.602Z,100489.50
2023-02-20T12:35:35.607Z,100483.25
2023-02-20T12:37:10.623Z,100492.41
2023-02-20T12:38:49.487Z,100478.47
2023-02-20T12:40:30.787Z,100489.50
2023-02-20T12:42:17.643Z,100495.47
2023-02-20T12:44:12.515Z,100485.00
2023-02-20T12:45:49.123Z,100485.97
2023-02-20T12:47:36.899Z,100489.22
2023-02-20T12:49:26.741Z,100496.00
2023-02-20T12:51:17.564Z,100483.91
2023-02-20T12:53:19.780Z,100498.72
2023-02-20T12:55:00.805Z,100486.78
2023-02-20T12:56:44.473Z,100495.34
2023-02-20T12:58:16.486Z,100484.06
2023-02-20T13:00:08.067Z,100491.84
2023-02-20T13:01:40.917Z,100499.00
2023-02-20T13:03:52.983Z,100498.75
2023-02-20T13:05:27.679Z,100507.78
2023-02-20T13:07:19.494Z,100492.22
2023-02-20T13:09:22.020Z,100498.91
2023-02-20T13:11:02.786Z,100493.56
2023-02-20T13:12:34.923Z,100500.41
2023-02-20T13:14:33.621Z,100490.72
2023-02-20T13:16:10.930Z,100501.63
2023-02-20T13:17:53.770Z,100497.84
2023-02-20T13:19:39.622Z,100498.47
2023-02-20T13:21:17.103Z,100497.50
2023-02-20T13:23:31.641Z,100499.22
2023-02-20T13:25:42.149Z,100499.88
2023-02-20T13:27:34.419Z,100492.63
2023-02-20T13:29:22.901Z,100490.56
2023-02-20T13:31:12.040Z,100487.19
2023-02-20T13:32:45.966Z,100491.41
2023-02-20T13:34:20.901Z,100486.75
2023-02-20T13:35:54.476Z,100487.19
2023-02-20T13:37:56.062Z,100489.53
2023-02-20T13:39:39.862Z,100481.09
2023-02-20T13:41:12.111Z,100488.13
2023-02-20T13:42:44.114Z,100484.69
2023-02-20T13:44:34.974Z,100483.59
2023-02-20T13:46:15.171Z,100471.50
2023-02-20T13:47:47.508Z,100474.09
2023-02-20T13:49:42.066Z,100474.53
2023-02-20T13:51:18.214Z,100475.06
2023-02-20T13:52:56.387Z,100470.91
2023-02-20T13:54:29.256Z,100465.63
2023-02-20T13:56:01.458Z,100466.44
2023-02-20T13:57:34.474Z,100474.28
2023-02-20T13:59:13.468Z,100468.31
2023-02-20T14:00:55.600Z,100460.72
2023-02-20T14:02:31.410Z,100461.13
2023-02-20T14:04:05.707Z,100461.97
2023-02-20T14:05:37.818Z,100463.03
2023-02-20T14:07:09.885Z,100468.78
2023-02-20T14:08:46.827Z,100459.38
2023-02-20T14:10:27.656Z,100467.81
2023-02-20T14:12:13.278Z,100481.84
2023-02-20T14:13:48.324Z,100480.78
2023-02-20T14:16:54.023Z,100469.00
2023-02-20T14:18:28.364Z,100470.97
2023-02-20T14:20:16.607Z,100474.50
2023-02-20T14:21:48.923Z,100475.03
2023-02-20T14:23:28.834Z,100474.84
2023-02-20T14:25:19.703Z,100479.13
2023-02-20T14:26:56.519Z,100478.28
2023-02-20T14:28:31.106Z,100467.88
2023-02-20T14:30:07.544Z,100464.44
2023-02-20T14:31:40.060Z,100467.66
2023-02-20T14:33:29.797Z,100454.19
2023-02-20T14:35:13.868Z,100464.59
2023-02-20T14:37:00.043Z,100459.69
2023-02-20T14:38:51.720Z,100468.69
2023-02-20T14:40:35.750Z,100469.50
2023-02-20T14:42:20.532Z,100466.09
2023-02-20T14:44:05.394Z,100463.66
2023-02-20T14:45:37.531Z,100476.50
2023-02-20T14:47:14.744Z,100470.16
2023-02-20T14:48:46.805Z,100473.59
2023-02-20T14:50:23.139Z,100482.94
2023-02-20T14:52:10.361Z,100473.22
2023-02-20T14:53:44.393Z,100478.44
2023-02-20T14:55:18.931Z,100472.66
2023-02-20T14:56:53.076Z,100472.81
2023-02-20T14:58:28.683Z,100479.72
2023-02-20T15:00:20.927Z,100475.25
2023-02-20T15:01:55.928Z,100482.44
2023-02-20T15:03:31.421Z,100475.50
2023-02-20T15:05:09.227Z,100479.84
2023-02-20T15:06:44.030Z,100487.72
2023-02-20T15:08:22.864Z,100482.44
2023-02-20T15:09:58.438Z,100487.63
2023-02-20T15:11:32.105Z,100490.34
2023-02-20T15:13:08.950Z,100478.16
2023-02-20T15:14:43.243Z,100485.13
2023-02-20T15:16:25.445Z,100491.28
2023-02-20T15:18:08.534Z,100484.22
2023-02-20T15:19:42.222Z,100479.94
2023-02-20T15:21:16.506Z,100486.13
2023-02-20T15:22:48.652Z,100478.44
2023-02-20T15:24:26.234Z,100482.84
2023-02-20T15:25:59.347Z,100483.75
2023-02-20T15:27:33.718Z,100482.91
2023-02-20T15:29:26.632Z,100484.69
2023-02-20T15:31:10.758Z,100483.72
2023-02-20T15:32:44.425Z,100483.94
2023-02-20T15:34:20.578Z,100494.47
2023-02-20T15:35:52.643Z,100483.34
2023-02-20T15:37:37.992Z,100479.72
2023-02-20T15:39:11.817Z,100471.13
2023-02-20T15:40:43.966Z,100472.03
2023-02-20T15:42:17.795Z,100475.44
2023-02-20T15:43:51.635Z,100470.38
2023-02-20T15:45:25.566Z,100466.13
2023-02-20T15:46:59.018Z,100467.97
2023-02-20T15:48:30.955Z,100468.00
2023-02-20T15:51:38.911Z,100473.28
2023-02-20T15:53:18.952Z,100481.19
2023-02-20T15:54:54.518Z,100478.59
2023-02-20T15:56:30.196Z,100482.16
2023-02-20T15:58:04.644Z,100477.16
2023-02-20T15:59:38.483Z,100483.28
2023-02-20T16:01:10.905Z,100487.59
2023-02-20T16:02:43.191Z,100486.81
2023-02-20T16:05:54.638Z,100494.50
2023-02-20T16:07:26.791Z,100490.28
2023-02-20T16:08:59.351Z,100494.59
2023-02-20T16:10:31.337Z,100488.59
2023-02-20T16:12:03.596Z,100486.91
2023-02-20T16:13:40.669Z,100493.78
2023-02-20T16:15:17.673Z,100497.44
2023-02-20T16:16:52.717Z,100493.97
2023-02-20T16:18:25.114Z,100492.34
2023-02-20T16:19:57.159Z,100505.50
2023-02-20T16:21:29.574Z,100499.34
2023-02-20T16:23:02.026Z,100500.34
2023-02-20T16:26:06.245Z,100508.06
2023-02-20T16:27:38.897Z,100502.00
2023-02-20T16:29:19.719Z,100498.47
2023-02-20T16:30:51.880Z,100507.28
2023-02-20T16:32:28.668Z,100504.63
2023-02-20T16:34:01.645Z,100498.78
2023-02-20T16:35:34.659Z,100505.75
2023-02-20T16:37:10.787Z,100492.81
2023-02-20T16:38:42.926Z,100507.63
2023-02-20T16:40:15.968Z,100498.97
2023-02-20T16:41:47.981Z,100499.13
2023-02-20T16:43:20.169Z,100496.50
2023-02-20T16:44:55.558Z,100501.78
2023-02-20T16:46:37.896Z,100496.53
2023-02-20T16:48:15.815Z,100503.44
2023-02-20T16:49:51.603Z,100499.09
2023-02-20T16:51:25.040Z,100506.13
2023-02-20T16:53:01.724Z,100512.06
2023-02-20T16:54:33.878Z,100507.00
2023-02-20T16:56:06.507Z,100507.03
2023-02-20T16:57:38.564Z,100517.44
2023-02-20T16:59:10.780Z,100515.78
2023-02-20T17:00:56.590Z,100520.94
2023-02-20T17:02:34.591Z,100527.91
2023-02-20T17:04:09.300Z,100519.28
2023-02-20T17:05:41.741Z,100521.03
2023-02-20T17:07:14.395Z,100526.22
2023-02-20T17:08:46.661Z,100516.88
2023-02-20T17:10:18.996Z,100528.13
2023-02-20T17:11:51.019Z,100529.84
2023-02-20T17:13:23.022Z,100529.03
2023-02-20T17:14:55.107Z,100543.75
2023-02-20T17:16:31.633Z,100539.53
2023-02-20T17:18:05.325Z,100533.63
2023-02-20T17:19:39.239Z,100546.50
2023-02-20T17:21:11.462Z,100544.78
2023-02-20T17:22:45.381Z,100551.72
2023-02-20T17:24:18.303Z,100548.25
2023-02-20T17:25:50.327Z,100547.50
2023-02-20T17:27:22.909Z,100542.25
2023-02-20T17:28:54.925Z,100542.25
2023-02-20T17:30:27.311Z,100546.59
2023-02-20T17:31:59.499Z,100532.84
2023-02-20T17:33:31.523Z,100551.91
2023-02-20T17:35:03.617Z,100540.63
2023-02-20T17:36:35.995Z,100538.03
2023-02-20T17:38:08.030Z,100531.09
2023-02-20T17:39:40.146Z,100529.41
2023-02-20T17:41:12.628Z,100525.09
2023-02-20T17:42:45.699Z,100519.94
2023-02-20T17:44:20.628Z,100526.91
2023-02-20T17:45:52.712Z,100522.59
2023-02-20T17:47:24.807Z,100526.09
2023-02-20T17:48:56.956Z,100525.25
2023-02-20T17:50:29.136Z,100518.38
2023-02-20T17:52:01.258Z,100521.84
2023-02-20T17:53:33.562Z,100521.84
2023-02-20T17:55:06.307Z,100528.75
2023-02-20T17:56:44.941Z,100524.47
2023-02-20T17:58:17.043Z,100518.44
2023-02-20T17:59:52.066Z,100514.09
2023-02-20T18:01:27.709Z,100520.16
2023-02-20T18:02:59.837Z,100525.34
2023-02-20T18:04:31.915Z,100520.22
2023-02-20T18:06:05.898Z,100526.19
2023-02-20T18:07:38.081Z,100526.22
2023-02-20T18:09:11.021Z,100527.06
2023-02-20T18:10:43.080Z,100531.38
2023-02-20T18:12:15.194Z,100531.41
2023-02-20T18:13:47.279Z,100537.47
2023-02-20T18:15:20.776Z,100534.03
2023-02-20T18:16:52.649Z,100533.97
2023-02-20T18:18:24.742Z,100529.75
2023-02-20T18:19:56.898Z,100536.69
2023-02-20T18:21:31.319Z,100529.75
2023-02-20T18:23:03.418Z,100527.22
2023-02-20T18:24:36.514Z,100527.22
2023-02-20T18:26:08.636Z,100526.38
2023-02-20T18:27:40.706Z,100526.38
2023-02-20T18:29:12.937Z,100519.50
2023-02-20T18:30:45.252Z,100513.47
2023-02-20T18:32:17.491Z,100509.19
2023-02-20T18:33:49.686Z,100516.16
2023-02-20T18:35:21.720Z,100518.81
2023-02-20T18:36:54.422Z,100531.75
2023-02-20T18:38:26.581Z,100518.84
2023-02-20T18:39:58.618Z,100522.34
2023-02-20T18:41:30.640Z,100518.94
2023-02-20T18:43:02.839Z,100530.19
2023-02-20T18:44:34.867Z,100525.88
2023-02-20T18:46:08.403Z,100525.06